createdAt,value
2022-07-26T00:00:20.171Z,1.50
2022-07-26T00:02:48.743Z,2.08
2022-07-26T00:05:16.829Z,2.10
2022-07-26T00:07:44.843Z,2.33
2022-07-26T00:10:12.554Z,1.63
2022-07-26T00:12:40.426Z,2.23
2022-07-26T00:15:10.871Z,1.77
2022-07-26T00:17:38.628Z,1.45
2022-07-26T00:20:06.314Z,1.07
2022-07-26T00:22:39.041Z,1.57
2022-07-26T00:25:09.242Z,2.67
2022-07-26T00:27:37.429Z,2.58
2022-07-26T00:30:09.754Z,1.88
2022-07-26T00:32:37.893Z,1.70
2022-07-26T00:35:07.396Z,2.42
2022-07-26T00:37:34.834Z,2.00
2022-07-26T00:40:02.254Z,1.75
2022-07-26T00:42:29.617Z,2.97
2022-07-26T00:44:57.013Z,1.85
2022-07-26T00:47:24.398Z,2.40
2022-07-26T00:49:51.535Z,1.42
2022-07-26T00:52:19.016Z,2.25
2022-07-26T00:54:46.723Z,1.92
2022-07-26T00:57:15.210Z,1.63
2022-07-26T00:59:43.027Z,1.92
2022-07-26T01:02:10.958Z,2.27
2022-07-26T01:04:38.530Z,1.70
2022-07-26T01:07:14.562Z,2.22
2022-07-26T01:09:43.384Z,1.52
2022-07-26T01:12:10.913Z,1.75
2022-07-26T01:14:38.299Z,2.03
2022-07-26T01:17:05.756Z,2.05
2022-07-26T01:19:33.152Z,1.77
2022-07-26T01:22:00.589Z,1.65
2022-07-26T01:24:27.978Z,1.73
2022-07-26T01:26:58.320Z,2.28
2022-07-26T01:29:35.298Z,1.92
2022-07-26T01:32:05.204Z,2.60
2022-07-26T01:34:32.768Z,2.13
2022-07-26T01:37:00.245Z,1.90
2022-07-26T01:39:27.692Z,2.30
2022-07-26T01:41:56.955Z,1.73
2022-07-26T01:44:24.540Z,1.17
2022-07-26T01:46:51.932Z,2.30
2022-07-26T01:49:19.401Z,2.13
2022-07-26T01:51:46.859Z,1.55
2022-07-26T01:54:14.233Z,2.30
2022-07-26T01:56:43.459Z,2.17
2022-07-26T01:59:10.530Z,2.05
2022-07-26T02:01:40.116Z,2.35
2022-07-26T02:04:09.357Z,2.38
2022-07-26T02:06:37.356Z,1.85
2022-07-26T02:09:05.906Z,2.55
2022-07-26T02:11:35.062Z,1.88
2022-07-26T02:14:03.406Z,2.22
2022-07-26T02:16:30.828Z,2.05
2022-07-26T02:18:58.164Z,2.90
2022-07-26T02:21:25.528Z,3.35
2022-07-26T02:23:52.964Z,2.53
2022-07-26T02:26:20.432Z,2.10
2022-07-26T02:28:47.728Z,2.05
2022-07-26T02:31:15.542Z,2.38
2022-07-26T02:33:43.209Z,1.58
2022-07-26T02:36:10.575Z,2.13
2022-07-26T02:38:37.993Z,2.30
2022-07-26T02:41:06.439Z,2.47
2022-07-26T02:43:33.863Z,2.10
2022-07-26T02:46:02.601Z,3.22
2022-07-26T02:48:31.262Z,2.65
2022-07-26T02:53:25.622Z,2.45
2022-07-26T02:55:52.990Z,2.63
2022-07-26T02:58:29.190Z,2.50
2022-07-26T03:00:56.419Z,3.47
2022-07-26T03:03:23.849Z,1.98
2022-07-26T03:05:51.240Z,3.17
2022-07-26T03:08:18.586Z,3.10
2022-07-26T03:10:45.965Z,3.25
2022-07-26T03:13:13.286Z,2.63
2022-07-26T03:15:40.876Z,2.53
2022-07-26T03:18:08.221Z,2.58
2022-07-26T03:20:35.570Z,3.15
2022-07-26T03:23:02.972Z,3.38
2022-07-26T03:25:30.426Z,3.30
2022-07-26T03:27:57.868Z,3.08
2022-07-26T03:30:26.509Z,2.25
2022-07-26T03:35:22.938Z,2.08
2022-07-26T03:40:19.173Z,2.55
2022-07-26T03:42:47.214Z,1.02
2022-07-26T03:45:15.603Z,2.97
2022-07-26T03:47:45.375Z,0.85
2022-07-26T03:50:14.033Z,1.90
2022-07-26T03:55:29.646Z,2.08
2022-07-26T03:57:57.196Z,2.30
2022-07-26T04:00:27.825Z,2.00
2022-07-26T04:02:55.388Z,1.85
2022-07-26T04:05:23.776Z,1.17
2022-07-26T04:07:53.804Z,1.33
2022-07-26T04:10:22.189Z,1.40
2022-07-26T04:12:50.151Z,1.23
2022-07-26T04:15:19.288Z,1.53
2022-07-26T04:17:48.549Z,1.08
2022-07-26T04:20:16.509Z,0.85
2022-07-26T04:22:43.975Z,0.70
2022-07-26T04:25:11.553Z,0.35
2022-07-26T04:27:39.486Z,1.20
2022-07-26T04:30:12.531Z,0.57
2022-07-26T04:32:42.098Z,0.98
2022-07-26T04:35:09.821Z,0.22
2022-07-26T04:37:41.496Z,0.93
2022-07-26T04:40:09.553Z,0.90
2022-07-26T04:42:37.371Z,0.32
2022-07-26T04:45:08.354Z,0.82
2022-07-26T04:47:36.634Z,0.50
2022-07-26T04:50:04.524Z,0.60
2022-07-26T04:52:32.591Z,0.43
2022-07-26T04:55:01.294Z,0.30
2022-07-26T04:57:28.729Z,0.45
2022-07-26T05:00:10.141Z,0.40
2022-07-26T05:02:43.321Z,1.02
2022-07-26T05:05:10.816Z,0.40
2022-07-26T05:07:44.892Z,0.52
2022-07-26T05:10:12.675Z,0.68
2022-07-26T05:12:40.246Z,0.52
2022-07-26T05:15:13.983Z,0.98
2022-07-26T05:17:43.049Z,0.68
2022-07-26T05:20:11.915Z,0.80
2022-07-26T05:25:07.712Z,0.70
2022-07-26T05:27:35.420Z,0.93
2022-07-26T05:30:03.185Z,0.40
2022-07-26T05:32:30.557Z,0.60
2022-07-26T05:34:58.298Z,1.02
2022-07-26T05:37:25.916Z,0.85
2022-07-26T05:39:53.566Z,0.63
2022-07-26T05:42:23.481Z,0.60
2022-07-26T05:44:51.273Z,0.50
2022-07-26T05:47:19.130Z,0.53
2022-07-26T05:49:46.575Z,0.77
2022-07-26T05:52:16.302Z,0.50
2022-07-26T05:54:44.983Z,0.73
2022-07-26T05:59:39.413Z,0.75
2022-07-26T06:02:08.811Z,0.95
2022-07-26T06:04:37.346Z,0.95
2022-07-26T06:07:06.393Z,0.25
2022-07-26T06:09:33.866Z,1.02
2022-07-26T06:12:03.519Z,0.70
2022-07-26T06:14:33.353Z,0.68
2022-07-26T06:17:00.870Z,1.00
2022-07-26T06:19:28.376Z,0.63
2022-07-26T06:21:55.813Z,0.30
2022-07-26T06:24:24.038Z,1.52
2022-07-26T06:26:56.825Z,1.73
2022-07-26T06:29:32.581Z,0.88
2022-07-26T06:32:02.171Z,0.30
2022-07-26T06:34:29.660Z,0.80
2022-07-26T06:36:57.053Z,0.88
2022-07-26T06:39:27.139Z,0.40
2022-07-26T06:41:56.584Z,1.13
2022-07-26T06:44:39.038Z,0.38
2022-07-26T06:47:06.705Z,0.43
2022-07-26T06:49:39.092Z,0.47
2022-07-26T06:52:12.570Z,0.65
2022-07-26T06:54:40.041Z,1.00
2022-07-26T06:57:09.795Z,0.77
2022-07-26T06:59:57.548Z,0.73
2022-07-26T07:02:28.955Z,0.80
2022-07-26T07:04:56.531Z,0.60
2022-07-26T07:07:28.038Z,0.60
2022-07-26T07:09:56.421Z,0.50
2022-07-26T07:12:23.913Z,1.00
2022-07-26T07:14:53.528Z,0.28
2022-07-26T07:17:21.352Z,0.45
2022-07-26T07:19:48.979Z,0.33
2022-07-26T07:22:16.389Z,0.10
2022-07-26T07:24:47.224Z,0.15
2022-07-26T07:27:16.000Z,0.20
2022-07-26T07:29:43.442Z,0.20
2022-07-26T07:32:18.478Z,0.25
2022-07-26T07:34:48.218Z,0.70
2022-07-26T07:37:16.104Z,0.82
2022-07-26T07:39:43.752Z,0.33
2022-07-26T07:42:11.345Z,0.40
2022-07-26T07:44:38.719Z,0.40
2022-07-26T07:47:06.510Z,0.22
2022-07-26T07:49:33.977Z,0.30
2022-07-26T07:52:01.490Z,0.45
2022-07-26T07:54:30.361Z,0.32
2022-07-26T07:56:57.926Z,0.40
2022-07-26T07:59:25.844Z,0.40
2022-07-26T08:01:53.262Z,0.10
2022-07-26T08:04:22.670Z,0.77
2022-07-26T08:06:51.292Z,0.73
2022-07-26T08:09:19.260Z,0.35
2022-07-26T08:11:50.696Z,0.20
2022-07-26T08:14:19.133Z,0.30
2022-07-26T08:16:49.078Z,0.40
2022-07-26T08:19:16.852Z,0.82
2022-07-26T08:21:46.711Z,0.30
2022-07-26T08:24:14.630Z,0.30
2022-07-26T08:26:41.743Z,0.50
2022-07-26T08:29:09.178Z,0.88
2022-07-26T08:31:36.712Z,0.50
2022-07-26T08:34:04.562Z,0.40
2022-07-26T08:36:33.120Z,0.30
2022-07-26T08:41:28.290Z,0.73
2022-07-26T08:43:55.828Z,0.68
2022-07-26T08:46:26.371Z,0.30
2022-07-26T08:48:55.767Z,1.67
2022-07-26T08:51:24.983Z,1.48
2022-07-26T08:53:57.883Z,0.52
2022-07-26T08:56:29.902Z,0.30
2022-07-26T08:58:57.417Z,0.80
2022-07-26T09:01:24.901Z,0.25
2022-07-26T09:03:52.399Z,0.47
2022-07-26T09:06:26.387Z,0.40
2022-07-26T09:09:10.552Z,0.50
2022-07-26T09:11:38.211Z,0.60
2022-07-26T09:14:06.260Z,0.52
2022-07-26T09:16:38.788Z,0.82
2022-07-26T09:19:19.278Z,0.17
2022-07-26T09:21:46.857Z,0.47
2022-07-26T09:24:30.561Z,0.55
2022-07-26T09:26:58.647Z,0.45
2022-07-26T09:29:26.081Z,0.40
2022-07-26T09:31:53.445Z,0.65
2022-07-26T09:34:27.031Z,0.25
2022-07-26T09:36:55.460Z,0.82
2022-07-26T09:39:33.374Z,0.30
2022-07-26T09:42:26.780Z,0.63
2022-07-26T09:44:55.569Z,0.40
2022-07-26T09:47:25.001Z,0.70
2022-07-26T09:50:25.666Z,0.75
2022-07-26T09:53:03.298Z,0.50
2022-07-26T09:55:40.873Z,0.50
2022-07-26T09:58:16.180Z,0.82
2022-07-26T10:00:44.364Z,0.22
2022-07-26T10:03:12.213Z,0.10
2022-07-26T10:05:42.255Z,0.52
2022-07-26T10:08:10.079Z,0.68
2022-07-26T10:11:00.300Z,0.30
2022-07-26T10:13:28.641Z,0.30
2022-07-26T10:15:56.876Z,0.43
2022-07-26T10:18:38.230Z,0.47
2022-07-26T10:21:21.722Z,0.20
2022-07-26T10:23:51.366Z,0.40
2022-07-26T10:26:36.185Z,1.25
2022-07-26T10:29:12.925Z,0.32
2022-07-26T10:31:40.455Z,0.95
2022-07-26T10:34:08.982Z,0.43
2022-07-26T10:36:38.266Z,0.93
2022-07-26T10:39:09.647Z,0.95
2022-07-26T10:41:38.351Z,0.60
2022-07-26T10:46:57.205Z,1.27
2022-07-26T10:49:39.527Z,0.32
2022-07-26T10:52:18.007Z,0.95
2022-07-26T10:55:00.296Z,0.77
2022-07-26T10:57:43.676Z,0.50
2022-07-26T11:00:16.177Z,0.63
2022-07-26T11:02:44.175Z,0.30
2022-07-26T11:05:14.315Z,0.52
2022-07-26T11:07:52.791Z,1.10
2022-07-26T11:10:26.613Z,0.73
2022-07-26T11:13:00.786Z,0.68
2022-07-26T11:15:28.169Z,0.80
2022-07-26T11:18:13.929Z,0.68
2022-07-26T11:20:42.882Z,0.80
2022-07-26T11:23:25.566Z,1.63
2022-07-26T11:26:02.456Z,0.90
2022-07-26T11:28:30.210Z,0.80
2022-07-26T11:30:58.375Z,0.93
2022-07-26T11:33:39.450Z,0.75
2022-07-26T11:36:07.282Z,0.80
2022-07-26T11:39:05.530Z,0.57
2022-07-26T11:41:34.998Z,0.28
2022-07-26T11:44:02.876Z,1.10
2022-07-26T11:46:35.158Z,1.15
2022-07-26T11:49:02.923Z,0.45
2022-07-26T11:51:30.403Z,1.30
2022-07-26T11:54:00.751Z,1.20
2022-07-26T11:56:30.998Z,0.50
2022-07-26T11:58:59.014Z,1.88
2022-07-26T12:01:27.475Z,0.47
2022-07-26T12:03:56.023Z,0.43
2022-07-26T12:08:56.267Z,0.50
2022-07-26T12:11:25.603Z,0.60
2022-07-26T12:13:55.914Z,0.55
2022-07-26T12:16:45.551Z,0.55
2022-07-26T12:19:19.339Z,0.65
2022-07-26T12:21:51.257Z,0.82
2022-07-26T12:24:40.773Z,0.60
2022-07-26T12:27:11.273Z,1.05
2022-07-26T12:29:39.561Z,0.70
2022-07-26T12:32:12.950Z,0.52
2022-07-26T12:34:41.207Z,0.90
2022-07-26T12:37:12.667Z,0.70
2022-07-26T12:39:40.677Z,0.43
2022-07-26T12:42:33.259Z,0.40
2022-07-26T12:45:02.167Z,0.60
2022-07-26T12:47:29.566Z,0.70
2022-07-26T12:49:57.048Z,0.60
2022-07-26T12:52:24.534Z,0.70
2022-07-26T12:54:53.661Z,1.00
2022-07-26T12:57:21.559Z,0.57
2022-07-26T12:59:49.241Z,1.13
2022-07-26T13:02:18.182Z,1.00
2022-07-26T13:04:45.710Z,0.65
2022-07-26T13:07:13.609Z,0.47
2022-07-26T13:09:41.165Z,1.30
2022-07-26T13:12:09.162Z,0.60
2022-07-26T13:14:37.765Z,0.70
2022-07-26T13:19:33.140Z,0.75
2022-07-26T13:22:01.091Z,0.73
2022-07-26T13:24:29.320Z,0.95
2022-07-26T13:26:57.310Z,0.40
2022-07-26T13:29:27.750Z,0.80
2022-07-26T13:31:59.536Z,1.10
2022-07-26T13:34:30.487Z,0.45
2022-07-26T13:37:02.073Z,0.85
2022-07-26T13:39:36.009Z,0.70
2022-07-26T13:42:03.384Z,0.40
2022-07-26T13:44:30.774Z,1.85
2022-07-26T13:46:58.124Z,0.80
2022-07-26T13:49:25.255Z,0.82
2022-07-26T13:51:58.832Z,1.48
2022-07-26T13:54:30.968Z,0.75
2022-07-26T13:56:59.799Z,0.68
2022-07-26T13:59:27.372Z,1.05
2022-07-26T14:01:55.518Z,0.98
2022-07-26T14:04:23.309Z,1.23
2022-07-26T14:06:51.022Z,0.97
2022-07-26T14:09:19.019Z,1.10
2022-07-26T14:11:46.173Z,0.77
2022-07-26T14:14:13.886Z,1.20
2022-07-26T14:16:41.736Z,0.90
2022-07-26T14:19:09.233Z,0.88
2022-07-26T14:21:38.637Z,1.10
2022-07-26T14:24:16.514Z,1.02
2022-07-26T14:26:46.043Z,1.10
2022-07-26T14:31:41.688Z,1.25
2022-07-26T14:34:09.405Z,0.95
2022-07-26T14:36:36.951Z,0.83
2022-07-26T14:39:05.050Z,1.25
2022-07-26T14:41:32.522Z,0.73
2022-07-26T14:44:01.466Z,0.52
2022-07-26T14:46:28.935Z,0.70
2022-07-26T14:48:56.469Z,0.70
2022-07-26T14:51:23.950Z,0.73
2022-07-26T14:53:51.345Z,0.80
2022-07-26T14:56:18.776Z,1.67
2022-07-26T14:58:46.104Z,1.20
2022-07-26T15:01:13.695Z,1.33
2022-07-26T15:03:41.141Z,1.52
2022-07-26T15:06:08.523Z,1.42
2022-07-26T15:08:35.929Z,1.08
2022-07-26T15:11:05.607Z,1.00
2022-07-26T15:13:33.128Z,0.80
2022-07-26T15:16:00.546Z,1.63
2022-07-26T15:18:28.037Z,0.90
2022-07-26T15:20:55.557Z,1.52
2022-07-26T15:23:22.925Z,1.30
2022-07-26T15:25:50.400Z,1.02
2022-07-26T15:28:17.552Z,0.88
2022-07-26T15:30:44.935Z,1.17
2022-07-26T15:33:12.969Z,1.33
2022-07-26T15:35:40.797Z,1.42
2022-07-26T15:38:07.993Z,1.03
2022-07-26T15:40:35.428Z,1.00
2022-07-26T15:43:03.115Z,1.67
2022-07-26T15:45:32.218Z,1.00
2022-07-26T15:48:14.577Z,1.02
2022-07-26T15:50:44.782Z,1.23
2022-07-26T15:53:12.276Z,1.88
2022-07-26T15:55:40.885Z,1.70
2022-07-26T15:58:08.317Z,1.23
2022-07-26T16:00:35.366Z,0.85
2022-07-26T16:03:02.828Z,1.42
2022-07-26T16:05:30.352Z,1.13
2022-07-26T16:07:57.700Z,1.02
2022-07-26T16:10:25.162Z,1.15
2022-07-26T16:12:52.514Z,1.08
2022-07-26T16:15:19.923Z,1.30
2022-07-26T16:17:46.909Z,1.08
2022-07-26T16:20:15.906Z,1.30
2022-07-26T16:22:43.340Z,0.82
2022-07-26T16:25:13.791Z,1.02
2022-07-26T16:27:42.826Z,1.27
2022-07-26T16:30:11.253Z,1.30
2022-07-26T16:32:38.723Z,1.30
2022-07-26T16:35:06.286Z,1.10
2022-07-26T16:37:33.715Z,1.17
2022-07-26T16:40:01.255Z,1.52
2022-07-26T16:42:28.315Z,1.63
2022-07-26T16:44:55.671Z,2.03
2022-07-26T16:47:23.131Z,1.95
2022-07-26T16:49:50.728Z,2.08
2022-07-26T16:52:18.075Z,2.05
2022-07-26T16:54:45.451Z,1.90
2022-07-26T16:57:12.802Z,2.00
2022-07-26T16:59:40.199Z,1.60
2022-07-26T17:02:09.214Z,1.67
2022-07-26T17:04:37.128Z,2.40
2022-07-26T17:07:24.549Z,2.43
2022-07-26T17:09:52.627Z,2.42
2022-07-26T17:12:20.064Z,1.63
2022-07-26T17:14:47.500Z,1.95
2022-07-26T17:17:14.905Z,1.80
2022-07-26T17:19:42.248Z,1.20
2022-07-26T17:22:09.615Z,2.05
2022-07-26T17:24:36.963Z,2.03
2022-07-26T17:27:04.429Z,2.42
2022-07-26T17:29:31.803Z,2.25
2022-07-26T17:31:59.191Z,1.75
2022-07-26T17:34:26.647Z,2.15
2022-07-26T17:36:58.670Z,3.58
2022-07-26T17:39:50.668Z,1.65
2022-07-26T17:42:14.772Z,1.63
2022-07-26T17:44:41.913Z,1.77
2022-07-26T17:47:28.609Z,2.45
2022-07-26T17:49:57.080Z,1.30
2022-07-26T17:52:25.900Z,2.03
2022-07-26T17:54:54.022Z,1.85
2022-07-26T17:57:21.623Z,1.17
2022-07-26T17:59:48.526Z,1.90
2022-07-26T18:02:16.003Z,1.95
2022-07-26T18:04:43.177Z,1.23
2022-07-26T18:07:10.124Z,1.70
2022-07-26T18:09:37.076Z,1.42
2022-07-26T18:12:04.355Z,1.17
2022-07-26T18:14:31.318Z,1.45
2022-07-26T18:16:58.335Z,1.52
2022-07-26T18:19:25.466Z,1.20
2022-07-26T18:21:52.851Z,1.25
2022-07-26T18:24:20.384Z,1.85
2022-07-26T18:26:47.743Z,1.98
2022-07-26T18:29:16.631Z,1.73
2022-07-26T18:31:44.266Z,1.52
2022-07-26T18:34:11.851Z,1.92
2022-07-26T18:36:39.536Z,1.63
2022-07-26T18:39:07.207Z,1.13
2022-07-26T18:41:34.778Z,1.63
2022-07-26T18:44:02.362Z,1.10
2022-07-26T18:46:30.016Z,1.38
2022-07-26T18:48:57.915Z,1.20
2022-07-26T18:51:26.638Z,1.63
2022-07-26T18:53:54.142Z,1.27
2022-07-26T18:56:21.707Z,1.33
2022-07-26T18:58:49.109Z,1.60
2022-07-26T19:01:16.522Z,1.55
2022-07-26T19:03:44.063Z,1.63
2022-07-26T19:06:13.245Z,1.77
2022-07-26T19:08:40.641Z,1.92
2022-07-26T19:11:08.039Z,1.88
2022-07-26T19:13:35.384Z,1.65
2022-07-26T19:16:02.913Z,2.10
2022-07-26T19:18:30.470Z,1.20
2022-07-26T19:20:57.819Z,1.70
2022-07-26T19:23:25.195Z,1.45
2022-07-26T19:25:52.661Z,1.08
2022-07-26T19:28:20.214Z,1.40
2022-07-26T19:30:47.725Z,1.48
2022-07-26T19:33:16.994Z,1.58
2022-07-26T19:35:44.414Z,1.10
2022-07-26T19:38:12.010Z,1.30
2022-07-26T19:40:39.355Z,1.45
2022-07-26T19:43:06.731Z,1.80
2022-07-26T19:45:34.096Z,1.55
2022-07-26T19:48:01.543Z,1.15
2022-07-26T19:50:29.147Z,1.30
2022-07-26T19:52:56.652Z,0.80
2022-07-26T19:55:24.051Z,1.52
2022-07-26T19:57:51.546Z,1.63
2022-07-26T20:01:43.083Z,1.90
2022-07-26T20:04:10.507Z,1.30
2022-07-26T20:06:37.867Z,1.58
2022-07-26T20:09:05.825Z,1.50
2022-07-26T20:11:35.283Z,1.43
2022-07-26T20:14:02.929Z,1.60
2022-07-26T20:16:30.614Z,1.52
2022-07-26T20:18:57.691Z,1.85
2022-07-26T20:21:25.123Z,1.75
2022-07-26T20:23:52.487Z,1.30
2022-07-26T20:26:19.961Z,1.67
2022-07-26T20:28:47.376Z,1.50
2022-07-26T20:31:17.707Z,1.90
2022-07-26T20:33:45.173Z,1.52
2022-07-26T20:36:12.511Z,2.08
2022-07-26T20:38:39.985Z,1.30
2022-07-26T20:41:07.438Z,1.38
2022-07-26T20:43:34.810Z,1.58
2022-07-26T20:46:02.353Z,1.20
2022-07-26T20:48:29.786Z,1.52
2022-07-26T20:50:57.148Z,1.75
2022-07-26T20:53:24.485Z,1.00
2022-07-26T20:55:51.936Z,1.52
2022-07-26T20:58:20.147Z,1.65
2022-07-26T21:00:47.623Z,1.13
2022-07-26T21:03:17.241Z,1.40
2022-07-26T21:05:45.117Z,1.67
2022-07-26T21:08:13.046Z,1.87
2022-07-26T21:10:40.509Z,0.57
2022-07-26T21:13:07.990Z,1.40
2022-07-26T21:15:35.703Z,1.63
2022-07-26T21:18:03.021Z,1.48
2022-07-26T21:20:31.437Z,1.90
2022-07-26T21:23:12.766Z,1.10
2022-07-26T21:25:43.662Z,0.95
2022-07-26T21:28:11.026Z,1.27
2022-07-26T21:30:38.128Z,0.93
2022-07-26T21:33:05.601Z,1.65
2022-07-26T21:35:33.097Z,0.80
2022-07-26T21:38:00.511Z,1.38
2022-07-26T21:40:28.000Z,1.50
2022-07-26T21:42:55.386Z,1.50
2022-07-26T21:45:22.838Z,1.80
2022-07-26T21:47:50.202Z,1.85
2022-07-26T21:50:17.626Z,1.13
2022-07-26T21:52:45.297Z,2.33
2022-07-26T21:55:18.155Z,1.73
2022-07-26T21:57:45.932Z,1.88
2022-07-26T22:00:15.485Z,1.73
2022-07-26T22:02:42.926Z,0.68
2022-07-26T22:05:30.644Z,1.60
2022-07-26T22:07:58.013Z,1.98
2022-07-26T22:10:25.500Z,1.35
2022-07-26T22:12:52.935Z,1.30
2022-07-26T22:15:20.867Z,0.85
2022-07-26T22:17:48.267Z,0.80
2022-07-26T22:20:15.790Z,1.73
2022-07-26T22:22:43.241Z,1.15
2022-07-26T22:25:10.664Z,0.70
2022-07-26T22:27:38.053Z,1.30
2022-07-26T22:30:09.085Z,1.70
2022-07-26T22:32:36.481Z,0.93
2022-07-26T22:35:03.942Z,0.60
2022-07-26T22:37:31.293Z,0.75
2022-07-26T22:39:58.765Z,1.20
2022-07-26T22:42:25.858Z,1.60
2022-07-26T22:44:53.237Z,0.57
2022-07-26T22:47:20.584Z,1.50
2022-07-26T22:49:48.083Z,1.40
2022-07-26T22:52:15.486Z,1.13
2022-07-26T22:54:42.907Z,0.98
2022-07-26T22:57:10.313Z,1.10
2022-07-26T22:59:37.739Z,2.42
2022-07-26T23:02:05.477Z,0.95
2022-07-26T23:04:32.890Z,1.05
2022-07-26T23:09:29.514Z,0.82
2022-07-26T23:11:57.001Z,0.75
2022-07-26T23:14:24.330Z,1.30
2022-07-26T23:16:51.761Z,0.95
2022-07-26T23:19:19.228Z,1.20
2022-07-26T23:21:46.642Z,0.70
2022-07-26T23:24:14.049Z,0.98
2022-07-26T23:26:41.452Z,1.02
2022-07-26T23:29:09.203Z,1.90
2022-07-26T23:31:38.287Z,0.63
2022-07-26T23:34:05.811Z,1.08
2022-07-26T23:36:33.205Z,1.20
2022-07-26T23:39:00.814Z,0.77
2022-07-26T23:41:28.557Z,0.70
2022-07-26T23:43:56.500Z,1.17
2022-07-26T23:46:24.463Z,0.70
2022-07-26T23:48:52.660Z,1.30
2022-07-26T23:51:20.499Z,1.65
2022-07-26T23:53:48.022Z,0.75
2022-07-26T23:56:15.784Z,1.58
2022-07-26T23:58:43.340Z,1.13
